sensor_id;sensor_type;location;lat;lon;timestamp;pressure;altitude;pressure_sealevel;temperature;humidity
14383;BME280;7275;50.328;8.720;2023-07-31T00:00:54;99466.16;;;23.40;42.68
14383;BME280;7275;50.328;8.720;2023-07-31T00:03:22;99471.97;;;23.35;43.25
14383;BME280;7275;50.328;8.720;2023-07-31T00:05:51;99469.56;;;23.32;43.20
14383;BME280;7275;50.328;8.720;2023-07-31T00:08:18;99469.56;;;23.32;43.06
14383;BME280;7275;50.328;8.720;2023-07-31T00:10:46;99468.56;;;23.33;42.82
14383;BME280;7275;50.328;8.720;2023-07-31T00:13:14;99471.25;;;23.24;43.45
14383;BME280;7275;50.328;8.720;2023-07-31T00:15:41;99470.81;;;23.28;43.56
14383;BME280;7275;50.328;8.720;2023-07-31T00:18:09;99474.38;;;23.19;43.87
14383;BME280;7275;50.328;8.720;2023-07-31T00:20:37;99472.09;;;23.15;44.42
14383;BME280;7275;50.328;8.720;2023-07-31T00:23:06;99472.97;;;23.15;44.36
14383;BME280;7275;50.328;8.720;2023-07-31T00:25:33;99469.66;;;23.12;44.49
14383;BME280;7275;50.328;8.720;2023-07-31T00:28:01;99473.78;;;23.16;44.53
14383;BME280;7275;50.328;8.720;2023-07-31T00:30:28;99467.97;;;23.11;44.80
14383;BME280;7275;50.328;8.720;2023-07-31T00:32:56;99466.25;;;23.10;44.79
14383;BME280;7275;50.328;8.720;2023-07-31T00:35:24;99470.66;;;23.01;45.40
14383;BME280;7275;50.328;8.720;2023-07-31T00:37:51;99467.28;;;23.09;45.12
14383;BME280;7275;50.328;8.720;2023-07-31T00:40:20;99463.88;;;23.07;44.94
14383;BME280;7275;50.328;8.720;2023-07-31T00:42:48;99478.34;;;23.05;45.50
14383;BME280;7275;50.328;8.720;2023-07-31T00:45:16;99464.44;;;23.00;45.77
14383;BME280;7275;50.328;8.720;2023-07-31T00:47:43;99457.75;;;22.95;45.92
14383;BME280;7275;50.328;8.720;2023-07-31T00:50:11;99470.97;;;22.98;45.92
14383;BME280;7275;50.328;8.720;2023-07-31T00:52:38;99467.84;;;23.02;45.31
14383;BME280;7275;50.328;8.720;2023-07-31T00:55:07;99461.16;;;22.97;45.83
14383;BME280;7275;50.328;8.720;2023-07-31T00:57:36;99464.84;;;22.96;45.58
14383;BME280;7275;50.328;8.720;2023-07-31T01:00:06;99463.56;;;23.00;45.32
14383;BME280;7275;50.328;8.720;2023-07-31T01:02:35;99464.16;;;22.94;45.95
14383;BME280;7275;50.328;8.720;2023-07-31T01:05:03;99456.75;;;22.96;45.64
14383;BME280;7275;50.328;8.720;2023-07-31T01:07:37;99462.72;;;22.90;46.43
14383;BME280;7275;50.328;8.720;2023-07-31T01:10:11;99453.78;;;22.89;46.17
14383;BME280;7275;50.328;8.720;2023-07-31T01:12:45;99441.28;;;22.88;46.08
14383;BME280;7275;50.328;8.720;2023-07-31T01:15:13;99448.13;;;22.92;46.29
14383;BME280;7275;50.328;8.720;2023-07-31T01:17:42;99452.63;;;22.82;46.77
14383;BME280;7275;50.328;8.720;2023-07-31T01:20:12;99439.75;;;22.86;46.35
14383;BME280;7275;50.328;8.720;2023-07-31T01:23:08;99441.16;;;22.90;46.32
14383;BME280;7275;50.328;8.720;2023-07-31T01:25:56;99439.75;;;22.86;46.26
14383;BME280;7275;50.328;8.720;2023-07-31T01:28:32;99449.34;;;22.88;46.20
14383;BME280;7275;50.328;8.720;2023-07-31T01:31:05;99442.69;;;22.83;46.40
14383;BME280;7275;50.328;8.720;2023-07-31T01:33:35;99447.69;;;22.87;46.53
14383;BME280;7275;50.328;8.720;2023-07-31T01:36:04;99448.38;;;22.80;46.98
14383;BME280;7275;50.328;8.720;2023-07-31T01:38:32;99447.53;;;22.79;46.99
14383;BME280;7275;50.328;8.720;2023-07-31T01:41:01;99438.31;;;22.82;46.58
14383;BME280;7275;50.328;8.720;2023-07-31T01:43:29;99440.56;;;22.86;46.33
14383;BME280;7275;50.328;8.720;2023-07-31T01:45:56;99431.50;;;22.87;46.31
14383;BME280;7275;50.328;8.720;2023-07-31T01:48:24;99433.75;;;22.82;46.91
14383;BME280;7275;50.328;8.720;2023-07-31T01:50:52;99427.22;;;22.85;46.53
14383;BME280;7275;50.328;8.720;2023-07-31T01:53:19;99420.56;;;22.89;46.51
14383;BME280;7275;50.328;8.720;2023-07-31T01:55:47;99419.59;;;22.90;46.59
14383;BME280;7275;50.328;8.720;2023-07-31T01:58:16;99412.34;;;22.90;46.11
14383;BME280;7275;50.328;8.720;2023-07-31T02:00:43;99406.97;;;22.90;46.75
14383;BME280;7275;50.328;8.720;2023-07-31T02:03:12;99421.28;;;22.91;46.56
14383;BME280;7275;50.328;8.720;2023-07-31T02:05:44;99406.97;;;22.90;46.48
14383;BME280;7275;50.328;8.720;2023-07-31T02:08:12;99401.28;;;22.93;46.03
14383;BME280;7275;50.328;8.720;2023-07-31T02:10:40;99408.38;;;22.94;46.43
14383;BME280;7275;50.328;8.720;2023-07-31T02:13:07;99401.41;;;23.01;46.07
14383;BME280;7275;50.328;8.720;2023-07-31T02:15:36;99405.53;;;22.96;46.21
14383;BME280;7275;50.328;8.720;2023-07-31T02:18:04;99397.16;;;22.99;45.97
14383;BME280;7275;50.328;8.720;2023-07-31T02:20:33;99406.66;;;23.03;46.24
14383;BME280;7275;50.328;8.720;2023-07-31T02:23:01;99410.78;;;23.07;45.98
14383;BME280;7275;50.328;8.720;2023-07-31T02:25:29;99403.53;;;23.08;45.86
14383;BME280;7275;50.328;8.720;2023-07-31T02:27:56;99408.66;;;23.11;45.83
14383;BME280;7275;50.328;8.720;2023-07-31T02:30:24;99404.81;;;23.13;46.04
14383;BME280;7275;50.328;8.720;2023-07-31T02:32:53;99399.53;;;23.12;46.05
14383;BME280;7275;50.328;8.720;2023-07-31T02:35:21;99389.78;;;23.11;45.81
14383;BME280;7275;50.328;8.720;2023-07-31T02:37:48;99399.97;;;23.17;45.66
14383;BME280;7275;50.328;8.720;2023-07-31T02:40:16;99398.41;;;23.14;45.94
14383;BME280;7275;50.328;8.720;2023-07-31T02:42:44;99396.84;;;23.12;45.85
14383;BME280;7275;50.328;8.720;2023-07-31T02:45:11;99392.88;;;23.16;45.85
14383;BME280;7275;50.328;8.720;2023-07-31T02:47:39;99393.88;;;23.15;45.87
14383;BME280;7275;50.328;8.720;2023-07-31T02:50:09;99390.47;;;23.13;46.09
14383;BME280;7275;50.328;8.720;2023-07-31T02:52:36;99392.31;;;23.12;46.07
14383;BME280;7275;50.328;8.720;2023-07-31T02:55:05;99385.66;;;23.07;45.96
14383;BME280;7275;50.328;8.720;2023-07-31T02:57:33;99397.72;;;23.02;46.32
14383;BME280;7275;50.328;8.720;2023-07-31T03:00:01;99382.09;;;23.06;46.13
14383;BME280;7275;50.328;8.720;2023-07-31T03:02:32;99392.63;;;23.09;46.28
14383;BME280;7275;50.328;8.720;2023-07-31T03:04:59;99386.91;;;23.12;46.01
14383;BME280;7275;50.328;8.720;2023-07-31T03:07:28;99387.50;;;23.06;46.61
14383;BME280;7275;50.328;8.720;2023-07-31T03:09:57;99390.75;;;23.10;46.30
14383;BME280;7275;50.328;8.720;2023-07-31T03:12:24;99392.03;;;23.05;46.54
14383;BME280;7275;50.328;8.720;2023-07-31T03:14:52;99383.13;;;23.05;47.03
14383;BME280;7275;50.328;8.720;2023-07-31T03:17:19;99389.34;;;23.05;46.49
14383;BME280;7275;50.328;8.720;2023-07-31T03:19:47;99392.19;;;23.04;46.56
14383;BME280;7275;50.328;8.720;2023-07-31T03:22:15;99396.72;;;23.03;46.74
14383;BME280;7275;50.328;8.720;2023-07-31T03:24:44;99393.75;;;23.07;46.95
14383;BME280;7275;50.328;8.720;2023-07-31T03:27:11;99392.03;;;23.05;46.83
14383;BME280;7275;50.328;8.720;2023-07-31T03:29:39;99393.31;;;23.01;46.97
14383;BME280;7275;50.328;8.720;2023-07-31T03:32:07;99394.03;;;23.03;47.09
14383;BME280;7275;50.328;8.720;2023-07-31T03:34:34;99393.47;;;23.00;46.97
14383;BME280;7275;50.328;8.720;2023-07-31T03:37:02;99388.22;;;22.98;47.31
14383;BME280;7275;50.328;8.720;2023-07-31T03:39:31;99386.66;;;22.96;47.08
14383;BME280;7275;50.328;8.720;2023-07-31T03:42:00;99385.38;;;23.00;47.06
14383;BME280;7275;50.328;8.720;2023-07-31T03:44:28;99384.25;;;23.02;47.04
14383;BME280;7275;50.328;8.720;2023-07-31T03:46:55;99382.13;;;22.96;47.39
14383;BME280;7275;50.328;8.720;2023-07-31T03:49:23;99389.91;;;22.99;47.16
14383;BME280;7275;50.328;8.720;2023-07-31T03:51:51;99392.34;;;23.02;47.11
14383;BME280;7275;50.328;8.720;2023-07-31T03:54:18;99385.22;;;23.01;47.47
14383;BME280;7275;50.328;8.720;2023-07-31T03:56:46;99387.94;;;23.01;47.50
14383;BME280;7275;50.328;8.720;2023-07-31T03:59:15;99385.22;;;23.01;47.57
14383;BME280;7275;50.328;8.720;2023-07-31T04:01:42;99378.97;;;23.01;47.77
14383;BME280;7275;50.328;8.720;2023-07-31T04:04:10;99365.66;;;22.99;47.83
14383;BME280;7275;50.328;8.720;2023-07-31T04:06:38;99375.56;;;22.99;47.80
14383;BME280;7275;50.328;8.720;2023-07-31T04:09:06;99377.00;;;23.03;47.53
14383;BME280;7275;50.328;8.720;2023-07-31T04:11:33;99375.44;;;22.91;48.17
14383;BME280;7275;50.328;8.720;2023-07-31T04:14:01;99384.66;;;22.98;48.06
14383;BME280;7275;50.328;8.720;2023-07-31T04:16:30;99372.31;;;22.95;48.19
14383;BME280;7275;50.328;8.720;2023-07-31T04:18:58;99376.75;;;22.96;47.79
14383;BME280;7275;50.328;8.720;2023-07-31T04:21:25;99374.47;;;22.92;48.51
14383;BME280;7275;50.328;8.720;2023-07-31T04:23:53;99383.97;;;22.96;48.31
14383;BME280;7275;50.328;8.720;2023-07-31T04:26:22;99373.19;;;22.96;48.19
14383;BME280;7275;50.328;8.720;2023-07-31T04:28:50;99380.41;;;22.95;48.38
14383;BME280;7275;50.328;8.720;2023-07-31T04:31:17;99377.44;;;22.89;48.99
14383;BME280;7275;50.328;8.720;2023-07-31T04:33:46;99377.31;;;22.90;48.64
14383;BME280;7275;50.328;8.720;2023-07-31T04:36:14;99369.94;;;22.92;48.87
14383;BME280;7275;50.328;8.720;2023-07-31T04:38:42;99380.13;;;22.89;48.74
14383;BME280;7275;50.328;8.720;2023-07-31T04:41:09;99359.56;;;22.88;49.18
14383;BME280;7275;50.328;8.720;2023-07-31T04:43:37;99369.50;;;22.87;49.04
14383;BME280;7275;50.328;8.720;2023-07-31T04:46:05;99366.38;;;22.92;48.86
14383;BME280;7275;50.328;8.720;2023-07-31T04:48:33;99364.38;;;22.84;49.57
14383;BME280;7275;50.328;8.720;2023-07-31T04:51:02;99350.78;;;22.86;49.44
14383;BME280;7275;50.328;8.720;2023-07-31T04:53:29;99349.34;;;22.91;49.24
14383;BME280;7275;50.328;8.720;2023-07-31T04:55:57;99349.34;;;22.91;49.22
14383;BME280;7275;50.328;8.720;2023-07-31T04:58:25;99351.75;;;22.94;49.07
14383;BME280;7275;50.328;8.720;2023-07-31T05:00:52;99358.13;;;22.93;49.28
14383;BME280;7275;50.328;8.720;2023-07-31T05:03:20;99352.75;;;22.93;49.48
14383;BME280;7275;50.328;8.720;2023-07-31T05:05:48;99361.25;;;22.98;49.27
14383;BME280;7275;50.328;8.720;2023-07-31T05:08:17;99363.97;;;22.98;49.40
14383;BME280;7275;50.328;8.720;2023-07-31T05:10:44;99362.25;;;22.97;49.56
14383;BME280;7275;50.328;8.720;2023-07-31T05:13:12;99362.94;;;22.99;49.40
14383;BME280;7275;50.328;8.720;2023-07-31T05:15:40;99370.88;;;23.01;49.11
14383;BME280;7275;50.328;8.720;2023-07-31T05:18:08;99371.91;;;23.00;49.12
14383;BME280;7275;50.328;8.720;2023-07-31T05:20:36;99368.19;;;23.01;49.49
14383;BME280;7275;50.328;8.720;2023-07-31T05:23:03;99364.78;;;22.99;49.67
14383;BME280;7275;50.328;8.720;2023-07-31T05:25:32;99364.50;;;23.02;49.41
14383;BME280;7275;50.328;8.720;2023-07-31T05:28:00;99379.56;;;23.04;49.30
14383;BME280;7275;50.328;8.720;2023-07-31T05:30:29;99365.22;;;23.04;49.25
14383;BME280;7275;50.328;8.720;2023-07-31T05:32:57;99377.28;;;23.00;49.27
14383;BME280;7275;50.328;8.720;2023-07-31T05:35:25;99368.47;;;23.08;49.38
14383;BME280;7275;50.328;8.720;2023-07-31T05:37:52;99372.72;;;23.10;49.01
14383;BME280;7275;50.328;8.720;2023-07-31T05:40:20;99376.28;;;23.11;48.73
14383;BME280;7275;50.328;8.720;2023-07-31T05:42:49;99366.06;;;23.14;48.50
14383;BME280;7275;50.328;8.720;2023-07-31T05:45:17;99351.88;;;23.12;48.79
14383;BME280;7275;50.328;8.720;2023-07-31T05:47:44;99355.25;;;23.14;49.04
14383;BME280;7275;50.328;8.720;2023-07-31T05:50:12;99345.50;;;23.13;48.92
14383;BME280;7275;50.328;8.720;2023-07-31T05:52:40;99344.06;;;23.09;48.96
14383;BME280;7275;50.328;8.720;2023-07-31T05:55:08;99348.47;;;23.10;48.56
14383;BME280;7275;50.328;8.720;2023-07-31T05:57:36;99348.31;;;23.12;48.66
14383;BME280;7275;50.328;8.720;2023-07-31T06:00:06;99352.56;;;23.14;48.40
14383;BME280;7275;50.328;8.720;2023-07-31T06:02:34;99353.13;;;23.18;48.21
14383;BME280;7275;50.328;8.720;2023-07-31T06:05:04;99356.13;;;23.15;48.11
14383;BME280;7275;50.328;8.720;2023-07-31T06:07:32;99355.00;;;23.17;48.23
14383;BME280;7275;50.328;8.720;2023-07-31T06:10:00;99346.03;;;23.17;47.92
14383;BME280;7275;50.328;8.720;2023-07-31T06:12:31;99344.03;;;23.19;47.71
14383;BME280;7275;50.328;8.720;2023-07-31T06:14:59;99340.91;;;23.23;47.63
14383;BME280;7275;50.328;8.720;2023-07-31T06:17:28;99337.50;;;23.21;47.67
14383;BME280;7275;50.328;8.720;2023-07-31T06:19:56;99338.94;;;23.25;47.25
14383;BME280;7275;50.328;8.720;2023-07-31T06:22:24;99330.84;;;23.16;47.76
14383;BME280;7275;50.328;8.720;2023-07-31T06:24:52;99341.63;;;23.25;47.58
14383;BME280;7275;50.328;8.720;2023-07-31T06:27:19;99344.47;;;23.24;47.43
14383;BME280;7275;50.328;8.720;2023-07-31T06:29:47;99336.22;;;23.25;47.74
14383;BME280;7275;50.328;8.720;2023-07-31T06:32:15;99329.97;;;23.25;47.34
14383;BME280;7275;50.328;8.720;2023-07-31T06:34:44;99333.22;;;23.28;47.33
14383;BME280;7275;50.328;8.720;2023-07-31T06:37:12;99342.47;;;23.26;47.30
14383;BME280;7275;50.328;8.720;2023-07-31T06:39:39;99339.78;;;23.35;47.37
14383;BME280;7275;50.328;8.720;2023-07-31T06:42:07;99352.28;;;23.36;47.26
14383;BME280;7275;50.328;8.720;2023-07-31T06:44:35;99329.53;;;23.39;47.28
14383;BME280;7275;50.328;8.720;2023-07-31T06:47:03;99334.75;;;23.50;47.04
14383;BME280;7275;50.328;8.720;2023-07-31T06:49:30;99321.00;;;23.43;47.29
14383;BME280;7275;50.328;8.720;2023-07-31T06:51:59;99323.69;;;23.43;47.54
14383;BME280;7275;50.328;8.720;2023-07-31T06:54:28;99331.09;;;23.41;47.32
14383;BME280;7275;50.328;8.720;2023-07-31T06:56:56;99350.53;;;23.45;46.99
14383;BME280;7275;50.328;8.720;2023-07-31T06:59:24;99331.34;;;23.48;46.96
14383;BME280;7275;50.328;8.720;2023-07-31T07:01:51;99344.56;;;23.51;47.61
14383;BME280;7275;50.328;8.720;2023-07-31T07:04:19;99333.50;;;23.44;47.94
14383;BME280;7275;50.328;8.720;2023-07-31T07:06:47;99340.59;;;23.45;47.65
14383;BME280;7275;50.328;8.720;2023-07-31T07:09:16;99336.47;;;23.51;47.86
14383;BME280;7275;50.328;8.720;2023-07-31T07:11:44;99324.50;;;23.63;47.56
14383;BME280;7275;50.328;8.720;2023-07-31T07:14:12;99338.09;;;23.61;47.41
14383;BME280;7275;50.328;8.720;2023-07-31T07:16:39;99330.16;;;23.69;47.54
14383;BME280;7275;50.328;8.720;2023-07-31T07:19:08;99319.44;;;23.77;47.45
14383;BME280;7275;50.328;8.720;2023-07-31T07:21:36;99330.34;;;23.86;47.49
14383;BME280;7275;50.328;8.720;2023-07-31T07:24:04;99308.59;;;23.87;47.30
14383;BME280;7275;50.328;8.720;2023-07-31T07:26:33;99313.34;;;24.03;47.32
14383;BME280;7275;50.328;8.720;2023-07-31T07:29:00;99312.84;;;24.17;46.91
14383;BME280;7275;50.328;8.720;2023-07-31T07:31:28;99325.44;;;24.26;46.72
14383;BME280;7275;50.328;8.720;2023-07-31T07:33:56;99305.22;;;24.30;46.21
14383;BME280;7275;50.328;8.720;2023-07-31T07:36:24;99311.41;;;24.40;46.37
14383;BME280;7275;50.328;8.720;2023-07-31T07:38:51;99322.28;;;24.48;45.78
14383;BME280;7275;50.328;8.720;2023-07-31T07:41:19;99320.03;;;24.43;45.57
14383;BME280;7275;50.328;8.720;2023-07-31T07:43:48;99304.75;;;24.52;45.50
14383;BME280;7275;50.328;8.720;2023-07-31T07:46:15;99310.56;;;24.57;45.32
14383;BME280;7275;50.328;8.720;2023-07-31T07:48:43;99300.28;;;24.60;45.48
14383;BME280;7275;50.328;8.720;2023-07-31T07:51:11;99315.47;;;24.61;45.29
14383;BME280;7275;50.328;8.720;2023-07-31T07:53:39;99296.34;;;24.55;45.25
14383;BME280;7275;50.328;8.720;2023-07-31T07:56:07;99300.44;;;24.59;45.55
14383;BME280;7275;50.328;8.720;2023-07-31T07:58:35;99305.75;;;24.69;45.47
14383;BME280;7275;50.328;8.720;2023-07-31T08:01:05;99306.19;;;24.74;44.98
14383;BME280;7275;50.328;8.720;2023-07-31T08:03:33;99315.25;;;24.73;44.80
14383;BME280;7275;50.328;8.720;2023-07-31T08:06:01;99313.13;;;24.76;45.11
14383;BME280;7275;50.328;8.720;2023-07-31T08:08:30;99309.94;;;24.81;44.47
14383;BME280;7275;50.328;8.720;2023-07-31T08:10:58;99312.28;;;24.76;44.87
14383;BME280;7275;50.328;8.720;2023-07-31T08:13:26;99307.94;;;24.83;44.81
14383;BME280;7275;50.328;8.720;2023-07-31T08:15:53;99303.22;;;24.85;44.84
14383;BME280;7275;50.328;8.720;2023-07-31T08:18:22;99292.38;;;24.85;44.86
14383;BME280;7275;50.328;8.720;2023-07-31T08:20:50;99301.97;;;24.97;44.83
14383;BME280;7275;50.328;8.720;2023-07-31T08:23:17;99285.63;;;25.06;44.91
14383;BME280;7275;50.328;8.720;2023-07-31T08:25:45;99279.41;;;25.14;44.96
14383;BME280;7275;50.328;8.720;2023-07-31T08:28:13;99279.50;;;25.22;44.54
14383;BME280;7275;50.328;8.720;2023-07-31T08:30:41;99272.63;;;25.35;44.41
14383;BME280;7275;50.328;8.720;2023-07-31T08:33:09;99270.50;;;25.47;44.15
14383;BME280;7275;50.328;8.720;2023-07-31T08:35:38;99279.88;;;25.61;44.19
14383;BME280;7275;50.328;8.720;2023-07-31T08:38:06;99278.38;;;25.66;43.85
14383;BME280;7275;50.328;8.720;2023-07-31T08:40:36;99263.38;;;25.80;43.57
14383;BME280;7275;50.328;8.720;2023-07-31T08:43:03;99254.91;;;25.83;44.02
14383;BME280;7275;50.328;8.720;2023-07-31T08:45:32;99247.63;;;25.83;43.38
14383;BME280;7275;50.328;8.720;2023-07-31T08:48:00;99260.31;;;25.75;43.39
14383;BME280;7275;50.328;8.720;2023-07-31T08:50:28;99257.47;;;25.84;43.33
14383;BME280;7275;50.328;8.720;2023-07-31T08:52:57;99266.63;;;25.91;43.40
14383;BME280;7275;50.328;8.720;2023-07-31T08:55:24;99253.22;;;25.82;43.34
14383;BME280;7275;50.328;8.720;2023-07-31T08:57:52;99259.31;;;25.76;43.37
14383;BME280;7275;50.328;8.720;2023-07-31T09:00:20;99260.41;;;25.57;43.83
14383;BME280;7275;50.328;8.720;2023-07-31T09:02:54;99269.94;;;25.69;43.74
14383;BME280;7275;50.328;8.720;2023-07-31T09:05:23;99259.56;;;25.57;43.99
14383;BME280;7275;50.328;8.720;2023-07-31T09:07:56;99255.72;;;25.67;44.24
14383;BME280;7275;50.328;8.720;2023-07-31T09:10:24;99265.03;;;25.73;43.87
14383;BME280;7275;50.328;8.720;2023-07-31T09:12:52;99264.28;;;25.55;43.77
14383;BME280;7275;50.328;8.720;2023-07-31T09:15:20;99251.09;;;25.60;43.69
14383;BME280;7275;50.328;8.720;2023-07-31T09:18:04;99237.50;;;25.44;43.97
14383;BME280;7275;50.328;8.720;2023-07-31T09:20:32;99242.22;;;25.42;44.26
14383;BME280;7275;50.328;8.720;2023-07-31T09:23:07;99238.47;;;25.34;44.20
14383;BME280;7275;50.328;8.720;2023-07-31T09:25:36;99253.47;;;25.29;44.38
14383;BME280;7275;50.328;8.720;2023-07-31T09:28:05;99252.13;;;25.33;44.50
14383;BME280;7275;50.328;8.720;2023-07-31T09:30:45;99255.97;;;25.22;45.17
14383;BME280;7275;50.328;8.720;2023-07-31T09:33:14;99251.22;;;25.24;45.76
14383;BME280;7275;50.328;8.720;2023-07-31T09:37:01;99259.69;;;25.21;46.13
14383;BME280;7275;50.328;8.720;2023-07-31T09:38:50;99258.97;;;25.11;46.37
14383;BME280;7275;50.328;8.720;2023-07-31T09:41:18;99262.50;;;25.12;46.55
14383;BME280;7275;50.328;8.720;2023-07-31T09:43:53;99253.84;;;25.08;46.84
14383;BME280;7275;50.328;8.720;2023-07-31T09:46:21;99243.03;;;25.08;46.86
14383;BME280;7275;50.328;8.720;2023-07-31T09:48:49;99252.91;;;25.17;46.77
14383;BME280;7275;50.328;8.720;2023-07-31T09:51:25;99254.94;;;25.15;47.52
14383;BME280;7275;50.328;8.720;2023-07-31T09:53:54;99246.63;;;25.17;47.42
14383;BME280;7275;50.328;8.720;2023-07-31T09:56:23;99248.69;;;25.23;47.19
14383;BME280;7275;50.328;8.720;2023-07-31T09:58:51;99239.03;;;25.20;47.52
14383;BME280;7275;50.328;8.720;2023-07-31T10:01:18;99239.63;;;25.32;47.26
14383;BME280;7275;50.328;8.720;2023-07-31T10:03:46;99227.78;;;25.33;47.49
14383;BME280;7275;50.328;8.720;2023-07-31T10:06:16;99226.69;;;25.52;47.56
14383;BME280;7275;50.328;8.720;2023-07-31T10:08:47;99221.38;;;25.68;47.39
14383;BME280;7275;50.328;8.720;2023-07-31T10:11:17;99223.44;;;25.82;46.84
14383;BME280;7275;50.328;8.720;2023-07-31T10:13:45;99226.34;;;25.88;46.14
14383;BME280;7275;50.328;8.720;2023-07-31T10:16:13;99214.84;;;25.94;46.00
14383;BME280;7275;50.328;8.720;2023-07-31T10:18:43;99220.06;;;25.96;46.12
14383;BME280;7275;50.328;8.720;2023-07-31T10:21:11;99206.88;;;26.01;45.94
14383;BME280;7275;50.328;8.720;2023-07-31T10:23:39;99202.97;;;26.03;46.25
14383;BME280;7275;50.328;8.720;2023-07-31T10:26:07;99194.34;;;26.00;45.68
14383;BME280;7275;50.328;8.720;2023-07-31T10:28:37;99195.19;;;26.00;44.90
14383;BME280;7275;50.328;8.720;2023-07-31T10:31:05;99199.09;;;26.06;45.07
14383;BME280;7275;50.328;8.720;2023-07-31T10:33:34;99196.78;;;26.11;45.24
14383;BME280;7275;50.328;8.720;2023-07-31T10:36:16;99177.81;;;26.11;44.77
14383;BME280;7275;50.328;8.720;2023-07-31T10:38:44;99172.72;;;26.16;44.96
14383;BME280;7275;50.328;8.720;2023-07-31T10:41:12;99180.34;;;26.21;44.76
14383;BME280;7275;50.328;8.720;2023-07-31T10:43:41;99184.06;;;26.28;44.43
14383;BME280;7275;50.328;8.720;2023-07-31T10:46:09;99182.72;;;26.16;44.58
14383;BME280;7275;50.328;8.720;2023-07-31T10:48:40;99182.53;;;26.25;43.43
14383;BME280;7275;50.328;8.720;2023-07-31T10:51:09;99179.16;;;26.23;43.05
14383;BME280;7275;50.328;8.720;2023-07-31T10:53:39;99175.59;;;26.23;43.60
14383;BME280;7275;50.328;8.720;2023-07-31T10:56:08;99177.81;;;26.19;43.36
14383;BME280;7275;50.328;8.720;2023-07-31T10:58:40;99185.09;;;26.27;43.35
14383;BME280;7275;50.328;8.720;2023-07-31T11:01:11;99176.94;;;26.27;43.71
14383;BME280;7275;50.328;8.720;2023-07-31T11:03:42;99164.59;;;26.32;43.49
14383;BME280;7275;50.328;8.720;2023-07-31T11:06:10;99164.41;;;26.34;43.08
14383;BME280;7275;50.328;8.720;2023-07-31T11:08:43;99170.19;;;26.39;43.09
14383;BME280;7275;50.328;8.720;2023-07-31T11:11:13;99153.56;;;26.42;43.32
14383;BME280;7275;50.328;8.720;2023-07-31T11:13:43;99161.69;;;26.50;43.26
14383;BME280;7275;50.328;8.720;2023-07-31T11:16:12;99156.09;;;26.59;43.09
14383;BME280;7275;50.328;8.720;2023-07-31T11:18:40;99152.19;;;26.62;42.40
14383;BME280;7275;50.328;8.720;2023-07-31T11:21:11;99149.81;;;26.67;42.48
14383;BME280;7275;50.328;8.720;2023-07-31T11:23:39;99140.66;;;26.60;41.83
14383;BME280;7275;50.328;8.720;2023-07-31T11:26:07;99148.16;;;26.74;41.71
14383;BME280;7275;50.328;8.720;2023-07-31T11:28:35;99144.38;;;26.83;42.14
14383;BME280;7275;50.328;8.720;2023-07-31T11:31:08;99124.34;;;26.92;41.83
14383;BME280;7275;50.328;8.720;2023-07-31T11:33:37;99153.84;;;26.95;41.31
14383;BME280;7275;50.328;8.720;2023-07-31T11:36:05;99145.69;;;27.03;41.15
14383;BME280;7275;50.328;8.720;2023-07-31T11:38:33;99134.66;;;27.05;40.95
14383;BME280;7275;50.328;8.720;2023-07-31T11:41:03;99120.75;;;27.08;41.27
14383;BME280;7275;50.328;8.720;2023-07-31T11:43:31;99130.63;;;27.31;40.53
14383;BME280;7275;50.328;8.720;2023-07-31T11:46:00;99131.66;;;27.38;40.79
14383;BME280;7275;50.328;8.720;2023-07-31T11:48:32;99131.78;;;27.45;39.89
14383;BME280;7275;50.328;8.720;2023-07-31T11:51:03;99109.94;;;27.38;39.92
14383;BME280;7275;50.328;8.720;2023-07-31T11:53:35;99110.19;;;27.51;39.45
14383;BME280;7275;50.328;8.720;2023-07-31T11:56:04;99126.13;;;27.54;39.93
14383;BME280;7275;50.328;8.720;2023-07-31T11:58:34;99123.13;;;27.41;39.54
14383;BME280;7275;50.328;8.720;2023-07-31T12:01:02;99117.63;;;27.57;39.38
14383;BME280;7275;50.328;8.720;2023-07-31T12:03:32;99122.41;;;27.55;39.05
14383;BME280;7275;50.328;8.720;2023-07-31T12:06:00;99108.53;;;27.73;39.36
14383;BME280;7275;50.328;8.720;2023-07-31T12:08:27;99107.31;;;27.76;39.06
14383;BME280;7275;50.328;8.720;2023-07-31T12:11:02;99115.88;;;27.87;39.11
14383;BME280;7275;50.328;8.720;2023-07-31T12:13:31;99120.97;;;27.90;38.82
14383;BME280;7275;50.328;8.720;2023-07-31T12:16:00;99103.56;;;27.77;38.18
14383;BME280;7275;50.328;8.720;2023-07-31T12:18:34;99105.56;;;27.83;38.41
14383;BME280;7275;50.328;8.720;2023-07-31T12:21:05;99086.72;;;27.81;38.02
14383;BME280;7275;50.328;8.720;2023-07-31T12:23:34;99091.06;;;27.67;38.49
14383;BME280;7275;50.328;8.720;2023-07-31T12:26:03;99081.66;;;27.78;39.07
14383;BME280;7275;50.328;8.720;2023-07-31T12:28:35;99086.00;;;27.87;39.47
14383;BME280;7275;50.328;8.720;2023-07-31T12:31:04;99087.31;;;27.99;38.87
14383;BME280;7275;50.328;8.720;2023-07-31T12:33:32;99095.63;;;27.98;38.04
14383;BME280;7275;50.328;8.720;2023-07-31T12:36:04;99105.78;;;27.96;37.82
14383;BME280;7275;50.328;8.720;2023-07-31T12:38:31;99079.19;;;27.91;37.90
14383;BME280;7275;50.328;8.720;2023-07-31T12:40:59;99067.09;;;27.94;37.87
14383;BME280;7275;50.328;8.720;2023-07-31T12:43:27;99065.75;;;28.12;37.84
14383;BME280;7275;50.328;8.720;2023-07-31T12:45:55;99056.97;;;28.25;37.45
14383;BME280;7275;50.328;8.720;2023-07-31T12:48:23;99066.78;;;28.48;37.36
14383;BME280;7275;50.328;8.720;2023-07-31T12:50:51;99054.63;;;28.59;37.11
14383;BME280;7275;50.328;8.720;2023-07-31T12:53:20;99049.59;;;28.48;36.74
14383;BME280;7275;50.328;8.720;2023-07-31T12:55:48;99037.44;;;28.59;37.40
14383;BME280;7275;50.328;8.720;2023-07-31T12:58:15;99039.31;;;28.73;36.97
14383;BME280;7275;50.328;8.720;2023-07-31T13:00:43;99026.44;;;28.81;36.92
14383;BME280;7275;50.328;8.720;2023-07-31T13:03:10;99035.19;;;28.77;36.61
14383;BME280;7275;50.328;8.720;2023-07-31T13:05:38;99019.44;;;28.72;37.39
14383;BME280;7275;50.328;8.720;2023-07-31T13:08:06;99026.00;;;28.63;36.60
14383;BME280;7275;50.328;8.720;2023-07-31T13:10:35;99026.66;;;28.65;36.94
14383;BME280;7275;50.328;8.720;2023-07-31T13:13:03;99041.03;;;28.59;37.11
14383;BME280;7275;50.328;8.720;2023-07-31T13:15:31;99031.25;;;28.65;37.67
14383;BME280;7275;50.328;8.720;2023-07-31T13:17:58;99038.00;;;28.69;37.17